sensor_id;sensor_type;location;lat;lon;timestamp;pressure;altitude;pressure_sealevel;temperature;humidity
18201;BME280;9226;47.858;9.594;2022-11-25T00:00:22;95113.03;;;4.49;75.07
18201;BME280;9226;47.858;9.594;2022-11-25T00:02:47;95105.44;;;4.45;74.96
18201;BME280;9226;47.858;9.594;2022-11-25T00:05:13;95108.16;;;4.43;74.76
18201;BME280;9226;47.858;9.594;2022-11-25T00:07:38;95109.19;;;4.41;74.64
18201;BME280;9226;47.858;9.594;2022-11-25T00:10:05;95109.66;;;4.33;75.31
18201;BME280;9226;47.858;9.594;2022-11-25T00:12:31;95110.22;;;4.24;75.42
18201;BME280;9226;47.858;9.594;2022-11-25T00:14:56;95101.41;;;4.25;75.43
18201;BME280;9226;47.858;9.594;2022-11-25T00:17:22;95098.13;;;4.21;75.73
18201;BME280;9226;47.858;9.594;2022-11-25T00:19:47;95097.75;;;4.27;74.90
18201;BME280;9226;47.858;9.594;2022-11-25T00:22:14;95105.91;;;4.23;75.39
18201;BME280;9226;47.858;9.594;2022-11-25T00:24:39;95104.22;;;4.22;75.70
18201;BME280;9226;47.858;9.594;2022-11-25T00:27:05;95103.56;;;4.18;75.91
18201;BME280;9226;47.858;9.594;2022-11-25T00:29:31;95095.59;;;4.20;75.87
18201;BME280;9226;47.858;9.594;2022-11-25T00:31:56;95096.25;;;4.23;75.72
18201;BME280;9226;47.858;9.594;2022-11-25T00:34:22;95091.91;;;4.22;75.77
18201;BME280;9226;47.858;9.594;2022-11-25T00:36:47;95094.75;;;4.19;76.25
18201;BME280;9226;47.858;9.594;2022-11-25T00:39:15;95096.44;;;4.20;76.12
18201;BME280;9226;47.858;9.594;2022-11-25T00:41:41;95099.94;;;4.21;76.15
18201;BME280;9226;47.858;9.594;2022-11-25T00:44:27;95104.22;;;4.22;76.05
18201;BME280;9226;47.858;9.594;2022-11-25T00:49:38;95103.38;;;4.21;76.82
18201;BME280;9226;47.858;9.594;2022-11-25T00:52:04;95098.97;;;4.22;76.73
18201;BME280;9226;47.858;9.594;2022-11-25T00:54:30;95105.81;;;4.24;76.28
18201;BME280;9226;47.858;9.594;2022-11-25T00:56:56;95121.38;;;4.27;76.04
18201;BME280;9226;47.858;9.594;2022-11-25T00:59:22;95115.38;;;4.25;76.25
18201;BME280;9226;47.858;9.594;2022-11-25T01:01:48;95123.44;;;4.22;76.45
18201;BME280;9226;47.858;9.594;2022-11-25T01:04:13;95127.56;;;4.26;76.04
18201;BME280;9226;47.858;9.594;2022-11-25T01:06:39;95135.53;;;4.25;76.18
18201;BME280;9226;47.858;9.594;2022-11-25T01:09:05;95140.78;;;4.25;76.35
18201;BME280;9226;47.858;9.594;2022-11-25T01:11:31;95149.41;;;4.27;76.15
18201;BME280;9226;47.858;9.594;2022-11-25T01:13:57;95157.56;;;4.22;76.49
18201;BME280;9226;47.858;9.594;2022-11-25T01:16:23;95162.72;;;4.24;76.31
18201;BME280;9226;47.858;9.594;2022-11-25T01:18:49;95155.91;;;4.21;76.49
18201;BME280;9226;47.858;9.594;2022-11-25T01:21:17;95152.44;;;4.21;76.56
18201;BME280;9226;47.858;9.594;2022-11-25T01:23:43;95154.19;;;4.20;76.29
18201;BME280;9226;47.858;9.594;2022-11-25T01:26:11;95146.41;;;4.19;76.46
18201;BME280;9226;47.858;9.594;2022-11-25T01:28:38;95152.53;;;4.19;76.51
18201;BME280;9226;47.858;9.594;2022-11-25T01:31:17;95156.75;;;4.22;76.29
18201;BME280;9226;47.858;9.594;2022-11-25T01:33:44;95146.03;;;4.25;76.28
18201;BME280;9226;47.858;9.594;2022-11-25T01:36:13;95148.03;;;4.21;77.09
18201;BME280;9226;47.858;9.594;2022-11-25T01:38:38;95157.47;;;4.24;76.84
18201;BME280;9226;47.858;9.594;2022-11-25T01:41:05;95162.44;;;4.28;76.79
18201;BME280;9226;47.858;9.594;2022-11-25T01:43:31;95155.44;;;4.29;77.08
18201;BME280;9226;47.858;9.594;2022-11-25T01:46:06;95170.41;;;4.27;77.40
18201;BME280;9226;47.858;9.594;2022-11-25T01:48:48;95178.97;;;4.30;77.27
18201;BME280;9226;47.858;9.594;2022-11-25T01:54:13;95183.19;;;4.33;77.55
18201;BME280;9226;47.858;9.594;2022-11-25T01:56:47;95195.13;;;4.39;77.17
18201;BME280;9226;47.858;9.594;2022-11-25T01:59:14;95195.13;;;4.39;77.27
18201;BME280;9226;47.858;9.594;2022-11-25T02:01:40;95184.50;;;4.40;77.44
18201;BME280;9226;47.858;9.594;2022-11-25T02:04:06;95174.75;;;4.42;77.52
18201;BME280;9226;47.858;9.594;2022-11-25T02:06:46;95197.47;;;4.43;77.79
18201;BME280;9226;47.858;9.594;2022-11-25T02:09:14;95179.63;;;4.48;77.46
18201;BME280;9226;47.858;9.594;2022-11-25T02:11:41;95162.84;;;4.51;77.33
18201;BME280;9226;47.858;9.594;2022-11-25T02:14:08;95168.94;;;4.51;77.53
18201;BME280;9226;47.858;9.594;2022-11-25T02:16:34;95176.72;;;4.53;77.54
18201;BME280;9226;47.858;9.594;2022-11-25T02:19:00;95165.19;;;4.56;77.20
18201;BME280;9226;47.858;9.594;2022-11-25T02:21:38;95167.91;;;4.54;77.27
18201;BME280;9226;47.858;9.594;2022-11-25T02:26:41;95166.84;;;4.57;77.06
18201;BME280;9226;47.858;9.594;2022-11-25T02:29:07;95172.13;;;4.57;77.06
18201;BME280;9226;47.858;9.594;2022-11-25T02:31:33;95165.28;;;4.54;77.46
18201;BME280;9226;47.858;9.594;2022-11-25T02:33:58;95156.34;;;4.57;77.50
18201;BME280;9226;47.858;9.594;2022-11-25T02:36:24;95153.06;;;4.53;78.08
18201;BME280;9226;47.858;9.594;2022-11-25T02:38:52;95143.31;;;4.55;77.73
18201;BME280;9226;47.858;9.594;2022-11-25T02:41:22;95146.69;;;4.57;77.41
18201;BME280;9226;47.858;9.594;2022-11-25T02:43:49;95142.19;;;4.59;77.45
18201;BME280;9226;47.858;9.594;2022-11-25T02:46:17;95143.50;;;4.52;78.08
18201;BME280;9226;47.858;9.594;2022-11-25T02:48:43;95153.72;;;4.57;77.57
18201;BME280;9226;47.858;9.594;2022-11-25T02:51:12;95145.28;;;4.51;77.82
18201;BME280;9226;47.858;9.594;2022-11-25T02:53:38;95145.28;;;4.51;77.94
18201;BME280;9226;47.858;9.594;2022-11-25T02:56:04;95140.97;;;4.50;77.79
18201;BME280;9226;47.858;9.594;2022-11-25T02:58:30;95140.03;;;4.51;77.79
18201;BME280;9226;47.858;9.594;2022-11-25T03:00:56;95144.16;;;4.56;77.49
18201;BME280;9226;47.858;9.594;2022-11-25T03:03:21;95144.16;;;4.56;77.26
18201;BME280;9226;47.858;9.594;2022-11-25T03:05:46;95148.28;;;4.60;77.31
18201;BME280;9226;47.858;9.594;2022-11-25T03:08:12;95144.81;;;4.59;77.43
18201;BME280;9226;47.858;9.594;2022-11-25T03:10:38;95143.97;;;4.59;77.20
18201;BME280;9226;47.858;9.594;2022-11-25T03:13:06;95149.25;;;4.59;77.23
18201;BME280;9226;47.858;9.594;2022-11-25T03:15:32;95156.44;;;4.55;77.24
18201;BME280;9226;47.858;9.594;2022-11-25T03:17:57;95156.53;;;4.53;77.09
18201;BME280;9226;47.858;9.594;2022-11-25T03:20:22;95161.25;;;4.48;77.39
18201;BME280;9226;47.858;9.594;2022-11-25T03:22:48;95161.53;;;4.44;77.94
18201;BME280;9226;47.858;9.594;2022-11-25T03:25:14;95158.81;;;4.45;77.63
18201;BME280;9226;47.858;9.594;2022-11-25T03:27:41;95154.56;;;4.43;77.70
18201;BME280;9226;47.858;9.594;2022-11-25T03:30:09;95151.09;;;4.42;77.57
18201;BME280;9226;47.858;9.594;2022-11-25T03:32:35;95160.88;;;4.40;77.69
18201;BME280;9226;47.858;9.594;2022-11-25T03:35:00;95160.41;;;4.33;78.32
18201;BME280;9226;47.858;9.594;2022-11-25T03:37:26;95165.19;;;4.41;77.74
18201;BME280;9226;47.858;9.594;2022-11-25T03:39:51;95170.53;;;4.40;78.01
18201;BME280;9226;47.858;9.594;2022-11-25T03:42:17;95165.47;;;4.37;78.64
18201;BME280;9226;47.858;9.594;2022-11-25T03:44:42;95158.25;;;4.40;78.02
18201;BME280;9226;47.858;9.594;2022-11-25T03:47:08;95161.06;;;4.37;78.41
18201;BME280;9226;47.858;9.594;2022-11-25T03:49:33;95163.03;;;4.33;78.70
18201;BME280;9226;47.858;9.594;2022-11-25T03:51:59;95155.16;;;4.33;78.75
18201;BME280;9226;47.858;9.594;2022-11-25T03:54:24;95154.78;;;4.40;78.12
18201;BME280;9226;47.858;9.594;2022-11-25T03:56:50;95166.88;;;4.42;77.85
18201;BME280;9226;47.858;9.594;2022-11-25T03:59:15;95159.28;;;4.38;77.98
18201;BME280;9226;47.858;9.594;2022-11-25T04:01:40;95161.72;;;4.41;77.77
18201;BME280;9226;47.858;9.594;2022-11-25T04:04:06;95157.09;;;4.44;77.35
18201;BME280;9226;47.858;9.594;2022-11-25T04:06:31;95161.44;;;4.45;77.64
18201;BME280;9226;47.858;9.594;2022-11-25T04:08:57;95157.00;;;4.46;77.57
18201;BME280;9226;47.858;9.594;2022-11-25T04:11:23;95160.50;;;4.46;77.51
18201;BME280;9226;47.858;9.594;2022-11-25T04:14:12;95163.41;;;4.42;77.61
18201;BME280;9226;47.858;9.594;2022-11-25T04:16:38;95167.06;;;4.39;77.77
18201;BME280;9226;47.858;9.594;2022-11-25T04:19:03;95167.69;;;4.43;77.50
18201;BME280;9226;47.858;9.594;2022-11-25T04:21:29;95175.72;;;4.41;77.35
18201;BME280;9226;47.858;9.594;2022-11-25T04:23:55;95162.66;;;4.40;77.63
18201;BME280;9226;47.858;9.594;2022-11-25T04:26:20;95161.06;;;4.37;77.80
18201;BME280;9226;47.858;9.594;2022-11-25T04:28:46;95169.69;;;4.39;77.41
18201;BME280;9226;47.858;9.594;2022-11-25T04:31:11;95167.06;;;4.39;77.53
18201;BME280;9226;47.858;9.594;2022-11-25T04:33:37;95182.16;;;4.35;78.02
18201;BME280;9226;47.858;9.594;2022-11-25T04:36:02;95182.06;;;4.37;77.77
18201;BME280;9226;47.858;9.594;2022-11-25T04:38:28;95178.03;;;4.31;78.04
18201;BME280;9226;47.858;9.594;2022-11-25T04:40:53;95174.47;;;4.32;77.93
18201;BME280;9226;47.858;9.594;2022-11-25T04:43:19;95168.38;;;4.32;77.90
18201;BME280;9226;47.858;9.594;2022-11-25T04:45:46;95172.69;;;4.33;77.76
18201;BME280;9226;47.858;9.594;2022-11-25T04:48:12;95178.13;;;4.30;77.90
18201;BME280;9226;47.858;9.594;2022-11-25T04:50:37;95173.81;;;4.29;77.91
18201;BME280;9226;47.858;9.594;2022-11-25T04:53:03;95178.03;;;4.31;77.43
18201;BME280;9226;47.858;9.594;2022-11-25T04:55:28;95184.88;;;4.34;77.60
18201;BME280;9226;47.858;9.594;2022-11-25T04:57:54;95188.34;;;4.34;77.58
18201;BME280;9226;47.858;9.594;2022-11-25T05:00:20;95192.66;;;4.35;77.47
18201;BME280;9226;47.858;9.594;2022-11-25T05:02:45;95191.75;;;4.37;77.46
18201;BME280;9226;47.858;9.594;2022-11-25T05:05:11;95201.38;;;4.36;77.91
18201;BME280;9226;47.858;9.594;2022-11-25T05:07:37;95193.59;;;4.34;78.20
18201;BME280;9226;47.858;9.594;2022-11-25T05:10:04;95184.88;;;4.34;78.57
18201;BME280;9226;47.858;9.594;2022-11-25T05:12:29;95185.44;;;4.39;78.45
18201;BME280;9226;47.858;9.594;2022-11-25T05:14:56;95182.91;;;4.38;79.60
18201;BME280;9226;47.858;9.594;2022-11-25T05:17:24;95175.72;;;4.41;79.93
18201;BME280;9226;47.858;9.594;2022-11-25T05:19:50;95168.00;;;4.38;80.56
18201;BME280;9226;47.858;9.594;2022-11-25T05:22:21;95175.31;;;4.33;80.48
18201;BME280;9226;47.858;9.594;2022-11-25T05:24:47;95178.69;;;4.35;80.04
18201;BME280;9226;47.858;9.594;2022-11-25T05:27:13;95177.09;;;4.32;79.70
18201;BME280;9226;47.858;9.594;2022-11-25T05:29:38;95178.53;;;4.38;79.30
18201;BME280;9226;47.858;9.594;2022-11-25T05:32:05;95173.91;;;4.42;78.79
18201;BME280;9226;47.858;9.594;2022-11-25T05:34:30;95181.50;;;4.46;78.93
18201;BME280;9226;47.858;9.594;2022-11-25T05:36:56;95178.03;;;4.46;78.73
18201;BME280;9226;47.858;9.594;2022-11-25T05:39:22;95184.31;;;4.43;78.21
18201;BME280;9226;47.858;9.594;2022-11-25T05:41:48;95185.97;;;4.15;78.87
18201;BME280;9226;47.858;9.594;2022-11-25T05:44:13;95184.88;;;4.05;78.87
18201;BME280;9226;47.858;9.594;2022-11-25T05:46:39;95188.78;;;4.12;78.31
18201;BME280;9226;47.858;9.594;2022-11-25T05:49:04;95192.19;;;4.14;78.25
18201;BME280;9226;47.858;9.594;2022-11-25T05:51:30;95197.44;;;4.14;78.69
18201;BME280;9226;47.858;9.594;2022-11-25T05:53:56;95187.59;;;4.18;78.69
18201;BME280;9226;47.858;9.594;2022-11-25T05:56:22;95193.50;;;4.22;78.74
18201;BME280;9226;47.858;9.594;2022-11-25T05:58:48;95191.63;;;4.24;78.68
18201;BME280;9226;47.858;9.594;2022-11-25T06:01:15;95187.97;;;4.26;78.63
18201;BME280;9226;47.858;9.594;2022-11-25T06:03:41;95188.25;;;4.22;79.09
18201;BME280;9226;47.858;9.594;2022-11-25T06:06:08;95193.88;;;4.30;78.98
18201;BME280;9226;47.858;9.594;2022-11-25T06:08:35;95197.84;;;4.37;79.03
18201;BME280;9226;47.858;9.594;2022-11-25T06:11:09;95195.94;;;4.39;79.47
18201;BME280;9226;47.858;9.594;2022-11-25T06:13:36;95200.66;;;4.48;79.13
18201;BME280;9226;47.858;9.594;2022-11-25T06:16:10;95204.88;;;4.51;79.40
18201;BME280;9226;47.858;9.594;2022-11-25T06:18:36;95199.16;;;4.59;79.10
18201;BME280;9226;47.858;9.594;2022-11-25T06:21:03;95186.47;;;4.65;78.75
18201;BME280;9226;47.858;9.594;2022-11-25T06:23:29;95187.31;;;4.66;78.79
18201;BME280;9226;47.858;9.594;2022-11-25T06:25:54;95188.72;;;4.71;78.59
18201;BME280;9226;47.858;9.594;2022-11-25T06:28:20;95185.03;;;4.74;78.55
18201;BME280;9226;47.858;9.594;2022-11-25T06:30:45;95183.19;;;4.76;78.23
18201;BME280;9226;47.858;9.594;2022-11-25T06:33:11;95186.75;;;4.75;78.30
18201;BME280;9226;47.858;9.594;2022-11-25T06:35:36;95185.03;;;4.74;78.25
18201;BME280;9226;47.858;9.594;2022-11-25T06:38:02;95195.66;;;4.72;78.79
18201;BME280;9226;47.858;9.594;2022-11-25T06:40:28;95197.25;;;4.75;78.65
18201;BME280;9226;47.858;9.594;2022-11-25T06:42:53;95190.50;;;4.71;78.92
18201;BME280;9226;47.858;9.594;2022-11-25T06:45:19;95197.06;;;4.78;78.67
18201;BME280;9226;47.858;9.594;2022-11-25T06:47:44;95205.50;;;4.83;78.32
18201;BME280;9226;47.858;9.594;2022-11-25T06:50:10;95212.47;;;4.84;78.27
18201;BME280;9226;47.858;9.594;2022-11-25T06:52:35;95214.91;;;4.87;78.19
18201;BME280;9226;47.858;9.594;2022-11-25T06:55:01;95221.09;;;4.86;77.95
18201;BME280;9226;47.858;9.594;2022-11-25T06:57:26;95205.13;;;4.75;78.36
18201;BME280;9226;47.858;9.594;2022-11-25T06:59:52;95218.09;;;4.78;78.38
18201;BME280;9226;47.858;9.594;2022-11-25T07:02:17;95219.13;;;4.76;78.67
18201;BME280;9226;47.858;9.594;2022-11-25T07:04:43;95218.47;;;4.72;78.52
18201;BME280;9226;47.858;9.594;2022-11-25T07:07:09;95230.13;;;4.82;78.15
18201;BME280;9226;47.858;9.594;2022-11-25T07:09:34;95233.50;;;4.84;78.17
18201;BME280;9226;47.858;9.594;2022-11-25T07:12:00;95236.94;;;4.85;78.10
18201;BME280;9226;47.858;9.594;2022-11-25T07:14:26;95238.00;;;4.82;78.53
18201;BME280;9226;47.858;9.594;2022-11-25T07:16:52;95244.75;;;4.86;78.44
18201;BME280;9226;47.858;9.594;2022-11-25T07:19:18;95248.78;;;4.92;78.54
18201;BME280;9226;47.858;9.594;2022-11-25T07:21:44;95246.53;;;5.00;78.18
18201;BME280;9226;47.858;9.594;2022-11-25T07:24:11;95246.22;;;5.05;78.05
18201;BME280;9226;47.858;9.594;2022-11-25T07:26:38;95253.75;;;5.11;78.03
18201;BME280;9226;47.858;9.594;2022-11-25T07:29:06;95262.84;;;5.05;78.28
18201;BME280;9226;47.858;9.594;2022-11-25T07:31:34;95259.19;;;5.08;78.23
18201;BME280;9226;47.858;9.594;2022-11-25T07:34:19;95261.38;;;5.01;78.84
18201;BME280;9226;47.858;9.594;2022-11-25T07:36:47;95268.47;;;5.14;78.45
18201;BME280;9226;47.858;9.594;2022-11-25T07:39:18;95274.78;;;5.11;78.41
18201;BME280;9226;47.858;9.594;2022-11-25T07:41:44;95264.44;;;5.22;78.35
18201;BME280;9226;47.858;9.594;2022-11-25T07:44:12;95277.94;;;5.31;78.29
18201;BME280;9226;47.858;9.594;2022-11-25T07:46:44;95273.41;;;5.33;78.47
18201;BME280;9226;47.858;9.594;2022-11-25T07:49:13;95285.16;;;5.41;78.79
18201;BME280;9226;47.858;9.594;2022-11-25T07:51:42;95273.41;;;5.47;78.59
18201;BME280;9226;47.858;9.594;2022-11-25T07:54:11;95273.94;;;5.79;77.95
18201;BME280;9226;47.858;9.594;2022-11-25T07:56:39;95273.78;;;5.95;78.19
18201;BME280;9226;47.858;9.594;2022-11-25T07:59:05;95278.00;;;6.25;77.95
18201;BME280;9226;47.858;9.594;2022-11-25T08:01:31;95281.41;;;6.53;76.73
18201;BME280;9226;47.858;9.594;2022-11-25T08:03:57;95285.00;;;6.78;75.19
18201;BME280;9226;47.858;9.594;2022-11-25T08:06:25;95276.91;;;6.81;73.55
18201;BME280;9226;47.858;9.594;2022-11-25T08:08:51;95280.25;;;7.09;73.15
18201;BME280;9226;47.858;9.594;2022-11-25T08:11:21;95275.53;;;7.01;72.36
18201;BME280;9226;47.858;9.594;2022-11-25T08:13:48;95281.22;;;6.95;71.91
18201;BME280;9226;47.858;9.594;2022-11-25T08:16:17;95294.59;;;7.04;72.19
18201;BME280;9226;47.858;9.594;2022-11-25T08:18:43;95302.22;;;6.96;71.43
18201;BME280;9226;47.858;9.594;2022-11-25T08:21:11;95293.78;;;6.91;71.86
18201;BME280;9226;47.858;9.594;2022-11-25T08:23:37;95300.31;;;6.85;71.91
18201;BME280;9226;47.858;9.594;2022-11-25T08:26:06;95302.19;;;7.09;72.33
18201;BME280;9226;47.858;9.594;2022-11-25T08:28:32;95301.78;;;7.02;72.48
18201;BME280;9226;47.858;9.594;2022-11-25T08:31:25;95301.16;;;6.86;72.17
18201;BME280;9226;47.858;9.594;2022-11-25T08:33:51;95297.56;;;7.00;72.17
18201;BME280;9226;47.858;9.594;2022-11-25T08:36:17;95296.06;;;6.96;72.13
18201;BME280;9226;47.858;9.594;2022-11-25T08:38:44;95299.78;;;7.06;71.75
18201;BME280;9226;47.858;9.594;2022-11-25T08:41:22;95300.19;;;7.13;72.00
18201;BME280;9226;47.858;9.594;2022-11-25T08:43:47;95306.44;;;7.12;71.55
18201;BME280;9226;47.858;9.594;2022-11-25T08:46:19;95303.56;;;7.02;71.55
18201;BME280;9226;47.858;9.594;2022-11-25T08:48:45;95303.78;;;7.12;71.82
18201;BME280;9226;47.858;9.594;2022-11-25T08:51:28;95307.59;;;7.07;71.83
18201;BME280;9226;47.858;9.594;2022-11-25T08:53:54;95315.50;;;7.07;72.02
18201;BME280;9226;47.858;9.594;2022-11-25T08:56:21;95316.53;;;7.05;71.76
18201;BME280;9226;47.858;9.594;2022-11-25T08:58:48;95307.50;;;6.83;72.46
18201;BME280;9226;47.858;9.594;2022-11-25T09:01:14;95314.97;;;6.77;72.16
18201;BME280;9226;47.858;9.594;2022-11-25T09:03:43;95318.47;;;6.77;71.29
18201;BME280;9226;47.858;9.594;2022-11-25T09:06:09;95316.25;;;6.84;71.66
18201;BME280;9226;47.858;9.594;2022-11-25T09:08:36;95320.69;;;6.96;71.48
18201;BME280;9226;47.858;9.594;2022-11-25T09:11:02;95328.06;;;7.17;71.54
18201;BME280;9226;47.858;9.594;2022-11-25T09:13:28;95326.44;;;7.27;70.50
18201;BME280;9226;47.858;9.594;2022-11-25T09:15:53;95334.78;;;7.21;69.98
18201;BME280;9226;47.858;9.594;2022-11-25T09:18:20;95334.69;;;7.35;70.37
18201;BME280;9226;47.858;9.594;2022-11-25T09:20:50;95336.53;;;7.59;71.20
18201;BME280;9226;47.858;9.594;2022-11-25T09:23:16;95340.03;;;8.21;71.47
18201;BME280;9226;47.858;9.594;2022-11-25T09:25:41;95342.56;;;8.82;69.18
18201;BME280;9226;47.858;9.594;2022-11-25T09:28:08;95348.53;;;9.31;66.43
18201;BME280;9226;47.858;9.594;2022-11-25T09:30:33;95347.94;;;9.61;64.05
18201;BME280;9226;47.858;9.594;2022-11-25T09:32:59;95346.81;;;9.86;63.42
18201;BME280;9226;47.858;9.594;2022-11-25T09:35:25;95344.81;;;9.90;62.05
18201;BME280;9226;47.858;9.594;2022-11-25T09:37:50;95355.72;;;10.08;61.93
18201;BME280;9226;47.858;9.594;2022-11-25T09:40:25;95347.69;;;10.42;62.42
18201;BME280;9226;47.858;9.594;2022-11-25T09:43:17;95354.63;;;10.54;60.41
18201;BME280;9226;47.858;9.594;2022-11-25T09:49:06;95358.69;;;10.70;60.83
18201;BME280;9226;47.858;9.594;2022-11-25T09:54:40;95353.22;;;10.50;60.24
18201;BME280;9226;47.858;9.594;2022-11-25T10:00:42;95354.88;;;10.83;60.52
18201;BME280;9226;47.858;9.594;2022-11-25T10:06:22;95356.91;;;10.91;60.83
18201;BME280;9226;47.858;9.594;2022-11-25T10:08:51;95359.22;;;11.06;60.39
18201;BME280;9226;47.858;9.594;2022-11-25T10:13:51;95362.13;;;11.02;59.73
18201;BME280;9226;47.858;9.594;2022-11-25T10:19:15;95364.19;;;10.78;60.49
18201;BME280;9226;47.858;9.594;2022-11-25T10:21:45;95361.66;;;10.76;60.71
18201;BME280;9226;47.858;9.594;2022-11-25T10:24:15;95357.41;;;10.85;60.55
18201;BME280;9226;47.858;9.594;2022-11-25T10:26:56;95369.34;;;10.58;60.84
18201;BME280;9226;47.858;9.594;2022-11-25T10:29:28;95365.19;;;10.65;60.80
18201;BME280;9226;47.858;9.594;2022-11-25T10:32:00;95363.59;;;10.53;60.92
18201;BME280;9226;47.858;9.594;2022-11-25T10:34:42;95369.38;;;10.47;60.87
18201;BME280;9226;47.858;9.594;2022-11-25T10:37:14;95364.91;;;10.47;61.95
18201;BME280;9226;47.858;9.594;2022-11-25T10:39:43;95373.03;;;10.23;61.86
18201;BME280;9226;47.858;9.594;2022-11-25T10:42:21;95374.22;;;10.30;61.91
18201;BME280;9226;47.858;9.594;2022-11-25T10:44:47;95381.13;;;10.22;62.12
18201;BME280;9226;47.858;9.594;2022-11-25T10:52:50;95373.78;;;9.91;62.26
18201;BME280;9226;47.858;9.594;2022-11-25T10:55:25;95370.81;;;9.85;62.36
18201;BME280;9226;47.858;9.594;2022-11-25T10:57:54;95369.84;;;9.74;62.97
18201;BME280;9226;47.858;9.594;2022-11-25T11:00:41;95375.88;;;9.65;63.83
18201;BME280;9226;47.858;9.594;2022-11-25T11:03:23;95375.53;;;9.47;64.30
18201;BME280;9226;47.858;9.594;2022-11-25T11:05:52;95373.06;;;9.33;64.69
18201;BME280;9226;47.858;9.594;2022-11-25T11:08:24;95369.84;;;9.40;64.69
18201;BME280;9226;47.858;9.594;2022-11-25T11:11:15;95373.06;;;9.33;64.94
18201;BME280;9226;47.858;9.594;2022-11-25T11:13:41;95374.06;;;9.32;65.15
18201;BME280;9226;47.858;9.594;2022-11-25T11:16:30;95373.88;;;9.11;65.85
18201;BME280;9226;47.858;9.594;2022-11-25T11:18:57;95372.25;;;9.21;65.84
18201;BME280;9226;47.858;9.594;2022-11-25T11:21:37;95374.41;;;9.16;66.23
18201;BME280;9226;47.858;9.594;2022-11-25T11:24:29;95365.09;;;8.99;66.44
18201;BME280;9226;47.858;9.594;2022-11-25T11:27:24;95360.16;;;8.94;67.04
18201;BME280;9226;47.858;9.594;2022-11-25T11:30:08;95362.19;;;8.91;66.92
18201;BME280;9226;47.858;9.594;2022-11-25T11:32:34;95360.75;;;8.98;67.20
18201;BME280;9226;47.858;9.594;2022-11-25T11:35:12;95357.19;;;9.10;66.77
18201;BME280;9226;47.858;9.594;2022-11-25T11:37:43;95355.25;;;9.12;67.11
18201;BME280;9226;47.858;9.594;2022-11-25T11:48:24;95341.28;;;8.99;68.16
18201;BME280;9226;47.858;9.594;2022-11-25T11:50:50;95342.75;;;9.03;68.12
18201;BME280;9226;47.858;9.594;2022-11-25T11:53:21;95338.53;;;9.12;67.91
18201;BME280;9226;47.858;9.594;2022-11-25T12:07:33;95331.22;;;9.49;68.01
18201;BME280;9226;47.858;9.594;2022-11-25T12:10:07;95330.50;;;9.58;67.89
18201;BME280;9226;47.858;9.594;2022-11-25T12:12:37;95331.44;;;9.69;67.58
18201;BME280;9226;47.858;9.594;2022-11-25T12:15:14;95340.22;;;9.69;67.47
18201;BME280;9226;47.858;9.594;2022-11-25T12:17:45;95341.75;;;9.94;66.70
18201;BME280;9226;47.858;9.594;2022-11-25T12:20:46;95342.13;;;10.01;66.85
18201;BME280;9226;47.858;9.594;2022-11-25T12:23:43;95345.47;;;10.03;66.42
18201;BME280;9226;47.858;9.594;2022-11-25T12:26:24;95345.91;;;10.31;66.74
18201;BME280;9226;47.858;9.594;2022-11-25T12:29:12;95344.69;;;10.35;66.46
18201;BME280;9226;47.858;9.594;2022-11-25T12:31:54;95345.47;;;10.58;67.02
18201;BME280;9226;47.858;9.594;2022-11-25T12:34:30;95351.41;;;10.72;66.69
18201;BME280;9226;47.858;9.594;2022-11-25T12:37:06;95353.13;;;10.73;66.94
18201;BME280;9226;47.858;9.594;2022-11-25T12:39:46;95351.84;;;10.88;66.87
18201;BME280;9226;47.858;9.594;2022-11-25T12:42:15;95350.72;;;10.91;66.29
18201;BME280;9226;47.858;9.594;2022-11-25T12:45:11;95356.91;;;10.91;66.67
18201;BME280;9226;47.858;9.594;2022-11-25T12:47:39;95359.09;;;11.07;66.46
18201;BME280;9226;47.858;9.594;2022-11-25T12:50:13;95358.03;;;10.98;66.31
18201;BME280;9226;47.858;9.594;2022-11-25T12:52:49;95365.31;;;10.96;66.14
18201;BME280;9226;47.858;9.594;2022-11-25T13:03:24;95374.66;;;10.58;66.78
18201;BME280;9226;47.858;9.594;2022-11-25T13:16:47;95378.63;;;10.53;67.07
18201;BME280;9226;47.858;9.594;2022-11-25T13:19:16;95383.50;;;10.68;66.66
18201;BME280;9226;47.858;9.594;2022-11-25T13:24:46;95383.78;;;10.65;65.98
18201;BME280;9226;47.858;9.594;2022-11-25T13:30:05;95383.78;;;10.65;65.76
18201;BME280;9226;47.858;9.594;2022-11-25T13:32:50;95396.00;;;10.57;65.92
18201;BME280;9226;47.858;9.594;2022-11-25T13:37:49;95389.81;;;10.56;66.28
18201;BME280;9226;47.858;9.594;2022-11-25T13:42:45;95394.63;;;10.62;66.52
18201;BME280;9226;47.858;9.594;2022-11-25T13:45:33;95399.59;;;10.56;66.70
18201;BME280;9226;47.858;9.594;2022-11-25T13:48:23;95402.63;;;10.51;66.85
18201;BME280;9226;47.858;9.594;2022-11-25T13:50:51;95402.88;;;10.48;66.97
18201;BME280;9226;47.858;9.594;2022-11-25T13:53:37;95400.09;;;10.49;66.95
18201;BME280;9226;47.858;9.594;2022-11-25T14:01:40;95419.91;;;10.45;67.28
18201;BME280;9226;47.858;9.594;2022-11-25T14:04:09;95418.91;;;10.46;67.24
18201;BME280;9226;47.858;9.594;2022-11-25T14:09:41;95429.06;;;10.41;67.27
18201;BME280;9226;47.858;9.594;2022-11-25T14:15:16;95437.16;;;10.40;67.50
18201;BME280;9226;47.858;9.594;2022-11-25T14:23:48;95437.63;;;10.34;67.59
18201;BME280;9226;47.858;9.594;2022-11-25T14:26:27;95447.03;;;10.26;67.96
18201;BME280;9226;47.858;9.594;2022-11-25T14:29:05;95450.41;;;10.28;67.72
18201;BME280;9226;47.858;9.594;2022-11-25T14:31:40;95451.25;;;10.18;68.01
18201;BME280;9226;47.858;9.594;2022-11-25T14:34:26;95459.22;;;10.18;68.04
18201;BME280;9226;47.858;9.594;2022-11-25T14:36:57;95460.53;;;10.23;68.14
18201;BME280;9226;47.858;9.594;2022-11-25T14:40:37;95464.50;;;10.18;68.32
18201;BME280;9226;47.858;9.594;2022-11-25T14:42:38;95480.06;;;10.22;68.16
18201;BME280;9226;47.858;9.594;2022-11-25T14:45:27;95477.88;;;10.16;68.34
18201;BME280;9226;47.858;9.594;2022-11-25T14:47:55;95478.84;;;10.15;68.72
18201;BME280;9226;47.858;9.594;2022-11-25T14:50:21;95481.50;;;10.15;68.75
18201;BME280;9226;47.858;9.594;2022-11-25T14:52:48;95484.38;;;10.12;68.88
18201;BME280;9226;47.858;9.594;2022-11-25T14:55:28;95490.66;;;10.11;69.09
18201;BME280;9226;47.858;9.594;2022-11-25T14:57:54;95488.03;;;10.11;69.12
18201;BME280;9226;47.858;9.594;2022-11-25T15:00:20;95495.63;;;10.04;70.04
18201;BME280;9226;47.858;9.594;2022-11-25T15:05:20;95496.94;;;9.99;69.96
18201;BME280;9226;47.858;9.594;2022-11-25T15:07:58;95503.19;;;9.98;69.99
18201;BME280;9226;47.858;9.594;2022-11-25T15:10:35;95501.84;;;9.81;71.47
18201;BME280;9226;47.858;9.594;2022-11-25T15:13:10;95509.19;;;9.77;71.98